sensor_id;sensor_type;location;lat;lon;timestamp;pressure;altitude;pressure_sealevel;temperature;humidity
48810;BME280;40070;47.322;18.784;2023-05-25T00:00:43;1004.38;;;17.52;69.84
48810;BME280;40070;47.322;18.784;2023-05-25T00:02:44;1004.45;;;17.55;69.86
48810;BME280;40070;47.322;18.784;2023-05-25T00:04:45;1004.49;;;17.59;69.98
48810;BME280;40070;47.322;18.784;2023-05-25T00:06:46;1004.45;;;17.59;69.45
48810;BME280;40070;47.322;18.784;2023-05-25T00:08:47;1004.46;;;17.55;69.55
48810;BME280;40070;47.322;18.784;2023-05-25T00:10:48;1004.44;;;17.60;69.42
48810;BME280;40070;47.322;18.784;2023-05-25T00:12:48;1004.44;;;17.37;69.59
48810;BME280;40070;47.322;18.784;2023-05-25T00:14:49;1004.42;;;17.37;69.75
48810;BME280;40070;47.322;18.784;2023-05-25T00:16:50;1004.38;;;17.20;70.50
48810;BME280;40070;47.322;18.784;2023-05-25T00:18:51;1004.38;;;17.43;69.56
48810;BME280;40070;47.322;18.784;2023-05-25T00:20:52;1004.38;;;17.47;69.78
48810;BME280;40070;47.322;18.784;2023-05-25T00:22:53;1004.39;;;17.65;68.76
48810;BME280;40070;47.322;18.784;2023-05-25T00:24:54;1004.36;;;17.39;69.36
48810;BME280;40070;47.322;18.784;2023-05-25T00:26:57;1004.36;;;17.19;69.94
48810;BME280;40070;47.322;18.784;2023-05-25T00:28:58;1004.36;;;17.30;69.96
48810;BME280;40070;47.322;18.784;2023-05-25T00:30:59;1004.34;;;17.31;69.58
48810;BME280;40070;47.322;18.784;2023-05-25T00:33:00;1004.39;;;17.42;69.44
48810;BME280;40070;47.322;18.784;2023-05-25T00:35:01;1004.36;;;17.57;68.74
48810;BME280;40070;47.322;18.784;2023-05-25T00:37:02;1004.41;;;17.69;68.44
48810;BME280;40070;47.322;18.784;2023-05-25T00:39:03;1004.44;;;17.73;68.21
48810;BME280;40070;47.322;18.784;2023-05-25T00:41:04;1004.41;;;17.89;68.05
48810;BME280;40070;47.322;18.784;2023-05-25T00:43:05;1004.46;;;17.56;68.70
48810;BME280;40070;47.322;18.784;2023-05-25T00:45:07;1004.45;;;17.56;69.04
48810;BME280;40070;47.322;18.784;2023-05-25T00:47:09;1004.49;;;17.83;68.04
48810;BME280;40070;47.322;18.784;2023-05-25T00:49:11;1004.49;;;17.77;68.15
48810;BME280;40070;47.322;18.784;2023-05-25T00:51:13;1004.47;;;17.87;67.70
48810;BME280;40070;47.322;18.784;2023-05-25T00:53:15;1004.50;;;17.60;68.66
48810;BME280;40070;47.322;18.784;2023-05-25T00:55:16;1004.55;;;17.79;68.16
48810;BME280;40070;47.322;18.784;2023-05-25T00:57:19;1004.53;;;17.77;68.18
48810;BME280;40070;47.322;18.784;2023-05-25T00:59:35;1004.54;;;17.83;68.10
48810;BME280;40070;47.322;18.784;2023-05-25T01:01:36;1004.55;;;17.81;68.11
48810;BME280;40070;47.322;18.784;2023-05-25T01:03:38;1004.56;;;17.77;68.25
48810;BME280;40070;47.322;18.784;2023-05-25T01:05:39;1004.55;;;17.80;68.38
48810;BME280;40070;47.322;18.784;2023-05-25T01:07:42;1004.52;;;18.13;67.36
48810;BME280;40070;47.322;18.784;2023-05-25T01:09:44;1004.52;;;18.18;67.02
48810;BME280;40070;47.322;18.784;2023-05-25T01:11:47;1004.56;;;18.36;66.28
48810;BME280;40070;47.322;18.784;2023-05-25T01:13:52;1004.53;;;18.22;66.74
48810;BME280;40070;47.322;18.784;2023-05-25T01:15:53;1004.54;;;18.36;66.40
48810;BME280;40070;47.322;18.784;2023-05-25T01:17:54;1004.53;;;18.24;66.85
48810;BME280;40070;47.322;18.784;2023-05-25T01:19:56;1004.59;;;18.21;66.87
48810;BME280;40070;47.322;18.784;2023-05-25T01:22:00;1004.61;;;17.94;68.05
48810;BME280;40070;47.322;18.784;2023-05-25T01:25:05;1004.61;;;17.89;68.52
48810;BME280;40070;47.322;18.784;2023-05-25T01:26:25;1004.60;;;17.94;68.14
48810;BME280;40070;47.322;18.784;2023-05-25T01:28:29;1004.56;;;17.96;68.25
48810;BME280;40070;47.322;18.784;2023-05-25T01:30:35;1004.63;;;17.87;68.26
48810;BME280;40070;47.322;18.784;2023-05-25T01:32:36;1004.68;;;17.81;68.64
48810;BME280;40070;47.322;18.784;2023-05-25T01:34:38;1004.65;;;17.71;69.24
48810;BME280;40070;47.322;18.784;2023-05-25T01:36:40;1004.66;;;17.63;69.41
48810;BME280;40070;47.322;18.784;2023-05-25T01:38:40;1004.69;;;17.77;68.92
48810;BME280;40070;47.322;18.784;2023-05-25T01:40:41;1004.70;;;17.91;68.36
48810;BME280;40070;47.322;18.784;2023-05-25T01:42:42;1004.71;;;17.73;69.06
48810;BME280;40070;47.322;18.784;2023-05-25T01:44:43;1004.74;;;17.55;69.57
48810;BME280;40070;47.322;18.784;2023-05-25T01:46:44;1004.74;;;17.63;69.58
48810;BME280;40070;47.322;18.784;2023-05-25T01:51:03;1004.76;;;17.73;69.08
48810;BME280;40070;47.322;18.784;2023-05-25T01:53:18;1004.78;;;17.61;69.42
48810;BME280;40070;47.322;18.784;2023-05-25T01:55:20;1004.76;;;17.73;69.28
48810;BME280;40070;47.322;18.784;2023-05-25T01:57:22;1004.80;;;17.92;68.42
48810;BME280;40070;47.322;18.784;2023-05-25T01:59:24;1004.77;;;17.81;68.47
48810;BME280;40070;47.322;18.784;2023-05-25T02:01:25;1004.79;;;17.73;68.87
48810;BME280;40070;47.322;18.784;2023-05-25T02:03:27;1004.77;;;17.85;68.40
48810;BME280;40070;47.322;18.784;2023-05-25T02:05:28;1004.78;;;17.43;69.86
48810;BME280;40070;47.322;18.784;2023-05-25T02:07:29;1004.76;;;17.60;69.18
48810;BME280;40070;47.322;18.784;2023-05-25T02:09:30;1004.74;;;17.70;68.73
48810;BME280;40070;47.322;18.784;2023-05-25T02:11:31;1004.75;;;17.57;69.38
48810;BME280;40070;47.322;18.784;2023-05-25T02:13:32;1004.73;;;17.50;69.69
48810;BME280;40070;47.322;18.784;2023-05-25T02:15:33;1004.75;;;17.70;68.89
48810;BME280;40070;47.322;18.784;2023-05-25T02:17:33;1004.75;;;17.72;68.91
48810;BME280;40070;47.322;18.784;2023-05-25T02:19:34;1004.77;;;17.74;68.78
48810;BME280;40070;47.322;18.784;2023-05-25T02:21:35;1004.79;;;17.67;69.10
48810;BME280;40070;47.322;18.784;2023-05-25T02:23:36;1004.87;;;17.88;68.62
48810;BME280;40070;47.322;18.784;2023-05-25T02:25:37;1004.92;;;17.78;68.57
48810;BME280;40070;47.322;18.784;2023-05-25T02:27:38;1004.89;;;17.79;68.63
48810;BME280;40070;47.322;18.784;2023-05-25T02:29:39;1004.96;;;17.84;68.58
48810;BME280;40070;47.322;18.784;2023-05-25T02:31:40;1004.95;;;17.82;68.95
48810;BME280;40070;47.322;18.784;2023-05-25T02:33:41;1005.00;;;17.99;68.36
48810;BME280;40070;47.322;18.784;2023-05-25T02:35:42;1004.99;;;18.01;68.22
48810;BME280;40070;47.322;18.784;2023-05-25T02:37:42;1005.01;;;17.89;68.93
48810;BME280;40070;47.322;18.784;2023-05-25T02:39:43;1005.03;;;17.90;69.19
48810;BME280;40070;47.322;18.784;2023-05-25T02:41:44;1005.04;;;17.71;70.29
48810;BME280;40070;47.322;18.784;2023-05-25T02:43:45;1004.99;;;17.83;69.89
48810;BME280;40070;47.322;18.784;2023-05-25T02:45:46;1005.02;;;17.77;69.97
48810;BME280;40070;47.322;18.784;2023-05-25T02:47:47;1005.01;;;17.65;70.29
48810;BME280;40070;47.322;18.784;2023-05-25T02:49:48;1005.04;;;17.58;70.59
48810;BME280;40070;47.322;18.784;2023-05-25T02:51:48;1005.03;;;17.64;70.43
48810;BME280;40070;47.322;18.784;2023-05-25T02:53:49;1005.03;;;17.57;70.75
48810;BME280;40070;47.322;18.784;2023-05-25T02:55:50;1005.08;;;17.30;71.66
48810;BME280;40070;47.322;18.784;2023-05-25T02:57:51;1005.08;;;17.31;71.93
48810;BME280;40070;47.322;18.784;2023-05-25T02:59:52;1005.08;;;17.42;71.47
48810;BME280;40070;47.322;18.784;2023-05-25T03:01:53;1005.07;;;17.38;71.69
48810;BME280;40070;47.322;18.784;2023-05-25T03:03:54;1005.11;;;17.55;70.84
48810;BME280;40070;47.322;18.784;2023-05-25T03:05:55;1005.09;;;17.45;71.08
48810;BME280;40070;47.322;18.784;2023-05-25T03:07:56;1005.08;;;17.59;70.99
48810;BME280;40070;47.322;18.784;2023-05-25T03:09:57;1005.08;;;17.73;70.28
48810;BME280;40070;47.322;18.784;2023-05-25T03:11:58;1005.05;;;17.71;69.69
48810;BME280;40070;47.322;18.784;2023-05-25T03:13:59;1005.06;;;17.69;70.14
48810;BME280;40070;47.322;18.784;2023-05-25T03:15:59;1005.05;;;17.74;69.82
48810;BME280;40070;47.322;18.784;2023-05-25T03:18:00;1005.07;;;17.67;70.05
48810;BME280;40070;47.322;18.784;2023-05-25T03:20:01;1005.09;;;17.67;70.10
48810;BME280;40070;47.322;18.784;2023-05-25T03:22:02;1005.10;;;17.72;70.12
48810;BME280;40070;47.322;18.784;2023-05-25T03:24:03;1005.12;;;17.77;69.99
48810;BME280;40070;47.322;18.784;2023-05-25T03:26:04;1005.15;;;17.76;69.60
48810;BME280;40070;47.322;18.784;2023-05-25T03:28:05;1005.14;;;17.69;69.89
48810;BME280;40070;47.322;18.784;2023-05-25T03:30:07;1005.16;;;17.89;69.38
48810;BME280;40070;47.322;18.784;2023-05-25T03:32:08;1005.20;;;18.19;68.44
48810;BME280;40070;47.322;18.784;2023-05-25T03:34:09;1005.24;;;18.29;67.78
48810;BME280;40070;47.322;18.784;2023-05-25T03:36:10;1005.27;;;18.38;67.51
48810;BME280;40070;47.322;18.784;2023-05-25T03:38:11;1005.26;;;18.49;66.82
48810;BME280;40070;47.322;18.784;2023-05-25T03:42:37;1005.29;;;18.14;67.70
48810;BME280;40070;47.322;18.784;2023-05-25T03:44:38;1005.29;;;18.14;67.78
48810;BME280;40070;47.322;18.784;2023-05-25T03:49:04;1005.30;;;17.78;69.00
48810;BME280;40070;47.322;18.784;2023-05-25T03:51:05;1005.27;;;17.74;69.19
48810;BME280;40070;47.322;18.784;2023-05-25T03:53:06;1005.29;;;17.77;69.32
48810;BME280;40070;47.322;18.784;2023-05-25T03:55:07;1005.27;;;17.87;68.74
48810;BME280;40070;47.322;18.784;2023-05-25T03:57:08;1005.25;;;17.76;69.27
48810;BME280;40070;47.322;18.784;2023-05-25T03:59:09;1005.30;;;17.83;68.82
48810;BME280;40070;47.322;18.784;2023-05-25T04:01:10;1005.29;;;17.66;69.36
48810;BME280;40070;47.322;18.784;2023-05-25T04:03:11;1005.36;;;17.47;69.83
48810;BME280;40070;47.322;18.784;2023-05-25T04:05:11;1005.37;;;17.50;70.24
48810;BME280;40070;47.322;18.784;2023-05-25T04:09:38;1005.44;;;17.76;69.30
48810;BME280;40070;47.322;18.784;2023-05-25T04:11:38;1005.48;;;17.70;69.09
48810;BME280;40070;47.322;18.784;2023-05-25T04:16:05;1005.50;;;17.63;69.15
48810;BME280;40070;47.322;18.784;2023-05-25T04:18:06;1005.51;;;17.57;69.67
48810;BME280;40070;47.322;18.784;2023-05-25T04:20:07;1005.55;;;17.82;68.66
48810;BME280;40070;47.322;18.784;2023-05-25T04:22:20;1005.58;;;18.04;68.24
48810;BME280;40070;47.322;18.784;2023-05-25T04:24:21;1005.60;;;18.29;67.31
48810;BME280;40070;47.322;18.784;2023-05-25T04:26:22;1005.60;;;18.32;67.26
48810;BME280;40070;47.322;18.784;2023-05-25T04:28:23;1005.61;;;18.41;66.62
48810;BME280;40070;47.322;18.784;2023-05-25T04:30:24;1005.62;;;18.29;66.99
48810;BME280;40070;47.322;18.784;2023-05-25T04:32:25;1005.61;;;18.27;66.81
48810;BME280;40070;47.322;18.784;2023-05-25T04:34:26;1005.62;;;18.41;66.89
48810;BME280;40070;47.322;18.784;2023-05-25T04:36:28;1005.59;;;18.47;66.84
48810;BME280;40070;47.322;18.784;2023-05-25T04:38:28;1005.57;;;18.31;67.15
48810;BME280;40070;47.322;18.784;2023-05-25T04:40:29;1005.56;;;18.52;67.06
48810;BME280;40070;47.322;18.784;2023-05-25T04:42:30;1005.56;;;18.63;66.40
48810;BME280;40070;47.322;18.784;2023-05-25T04:44:31;1005.58;;;18.63;66.36
48810;BME280;40070;47.322;18.784;2023-05-25T04:46:32;1005.50;;;18.76;66.08
48810;BME280;40070;47.322;18.784;2023-05-25T04:50:58;1005.54;;;18.55;66.36
48810;BME280;40070;47.322;18.784;2023-05-25T04:52:59;1005.59;;;18.45;66.57
48810;BME280;40070;47.322;18.784;2023-05-25T04:55:00;1005.58;;;18.52;66.04
48810;BME280;40070;47.322;18.784;2023-05-25T04:57:01;1005.57;;;18.10;67.41
48810;BME280;40070;47.322;18.784;2023-05-25T04:59:24;1005.61;;;17.90;68.18
48810;BME280;40070;47.322;18.784;2023-05-25T05:01:30;1005.66;;;17.94;68.05
48810;BME280;40070;47.322;18.784;2023-05-25T05:03:36;1005.70;;;17.97;68.03
48810;BME280;40070;47.322;18.784;2023-05-25T05:05:42;1005.72;;;18.15;68.02
48810;BME280;40070;47.322;18.784;2023-05-25T05:07:48;1005.77;;;18.44;66.72
48810;BME280;40070;47.322;18.784;2023-05-25T05:09:54;1005.73;;;18.36;66.66
48810;BME280;40070;47.322;18.784;2023-05-25T05:12:00;1005.78;;;18.38;66.62
48810;BME280;40070;47.322;18.784;2023-05-25T05:14:01;1005.81;;;18.51;66.24
48810;BME280;40070;47.322;18.784;2023-05-25T05:16:02;1005.79;;;18.55;65.97
48810;BME280;40070;47.322;18.784;2023-05-25T05:18:03;1005.80;;;18.73;65.40
48810;BME280;40070;47.322;18.784;2023-05-25T05:20:04;1005.90;;;18.59;65.58
48810;BME280;40070;47.322;18.784;2023-05-25T05:22:05;1005.85;;;18.77;65.51
48810;BME280;40070;47.322;18.784;2023-05-25T05:24:06;1005.86;;;18.75;65.22
48810;BME280;40070;47.322;18.784;2023-05-25T05:28:37;1005.84;;;19.01;64.40
48810;BME280;40070;47.322;18.784;2023-05-25T05:30:42;1005.81;;;18.95;64.65
48810;BME280;40070;47.322;18.784;2023-05-25T05:32:49;1005.89;;;19.10;64.51
48810;BME280;40070;47.322;18.784;2023-05-25T05:42:15;1005.83;;;18.88;63.57
48810;BME280;40070;47.322;18.784;2023-05-25T05:44:21;1005.91;;;19.15;62.90
48810;BME280;40070;47.322;18.784;2023-05-25T05:46:27;1005.90;;;19.06;62.92
48810;BME280;40070;47.322;18.784;2023-05-25T05:48:34;1005.91;;;18.81;63.85
48810;BME280;40070;47.322;18.784;2023-05-25T05:50:40;1005.97;;;18.77;64.45
48810;BME280;40070;47.322;18.784;2023-05-25T05:52:46;1006.02;;;18.77;64.31
48810;BME280;40070;47.322;18.784;2023-05-25T05:54:51;1005.97;;;18.77;64.89
48810;BME280;40070;47.322;18.784;2023-05-25T05:56:57;1005.96;;;18.88;65.11
48810;BME280;40070;47.322;18.784;2023-05-25T05:59:03;1005.99;;;19.30;64.12
48810;BME280;40070;47.322;18.784;2023-05-25T06:01:09;1005.96;;;19.64;62.80
48810;BME280;40070;47.322;18.784;2023-05-25T06:14:49;1006.00;;;19.76;61.81
48810;BME280;40070;47.322;18.784;2023-05-25T06:16:55;1006.00;;;19.76;61.76
48810;BME280;40070;47.322;18.784;2023-05-25T06:19:01;1006.00;;;19.60;62.08
48810;BME280;40070;47.322;18.784;2023-05-25T06:21:07;1005.99;;;19.91;61.76
48810;BME280;40070;47.322;18.784;2023-05-25T06:23:08;1005.98;;;20.26;60.89
48810;BME280;40070;47.322;18.784;2023-05-25T06:25:09;1006.01;;;20.43;60.51
48810;BME280;40070;47.322;18.784;2023-05-25T06:27:10;1006.06;;;20.03;60.78
48810;BME280;40070;47.322;18.784;2023-05-25T06:29:11;1006.10;;;20.01;60.79
48810;BME280;40070;47.322;18.784;2023-05-25T06:31:27;1006.13;;;19.87;61.29
48810;BME280;40070;47.322;18.784;2023-05-25T06:33:33;1006.09;;;20.20;60.44
48810;BME280;40070;47.322;18.784;2023-05-25T06:35:34;1006.11;;;20.40;59.90
48810;BME280;40070;47.322;18.784;2023-05-25T06:37:53;1006.10;;;20.39;60.14
48810;BME280;40070;47.322;18.784;2023-05-25T06:39:59;1006.12;;;20.80;59.15
48810;BME280;40070;47.322;18.784;2023-05-25T06:42:05;1006.09;;;20.79;59.41
48810;BME280;40070;47.322;18.784;2023-05-25T06:55:44;1006.09;;;21.07;58.86
48810;BME280;40070;47.322;18.784;2023-05-25T06:57:50;1006.11;;;21.40;58.47
48810;BME280;40070;47.322;18.784;2023-05-25T06:59:56;1006.09;;;21.53;58.80
48810;BME280;40070;47.322;18.784;2023-05-25T07:02:02;1006.12;;;21.92;58.14
48810;BME280;40070;47.322;18.784;2023-05-25T07:25:10;1006.17;;;21.94;56.77
48810;BME280;40070;47.322;18.784;2023-05-25T07:27:16;1006.20;;;22.18;56.70
48810;BME280;40070;47.322;18.784;2023-05-25T07:43:00;1006.21;;;22.94;55.03
48810;BME280;40070;47.322;18.784;2023-05-25T07:45:07;1006.18;;;23.22;53.90
48810;BME280;40070;47.322;18.784;2023-05-25T07:47:13;1006.18;;;23.14;54.23
48810;BME280;40070;47.322;18.784;2023-05-25T07:49:19;1006.20;;;23.24;55.44
48810;BME280;40070;47.322;18.784;2023-05-25T07:51:26;1006.15;;;23.76;53.68
48810;BME280;40070;47.322;18.784;2023-05-25T07:53:31;1006.18;;;23.96;53.70
48810;BME280;40070;47.322;18.784;2023-05-25T07:55:37;1006.19;;;23.89;53.05
48810;BME280;40070;47.322;18.784;2023-05-25T07:57:44;1006.19;;;23.59;54.18
48810;BME280;40070;47.322;18.784;2023-05-25T07:59:49;1006.17;;;23.77;53.64
48810;BME280;40070;47.322;18.784;2023-05-25T08:01:55;1006.13;;;24.23;52.97
48810;BME280;40070;47.322;18.784;2023-05-25T08:04:01;1006.14;;;24.40;51.91
48810;BME280;40070;47.322;18.784;2023-05-25T08:06:07;1006.18;;;24.56;51.47
48810;BME280;40070;47.322;18.784;2023-05-25T08:08:13;1006.15;;;24.75;52.55
48810;BME280;40070;47.322;18.784;2023-05-25T08:10:13;1006.20;;;24.93;50.26
48810;BME280;40070;47.322;18.784;2023-05-25T08:12:30;1006.19;;;24.75;50.81
48810;BME280;40070;47.322;18.784;2023-05-25T08:14:34;1006.20;;;24.64;51.01
48810;BME280;40070;47.322;18.784;2023-05-25T08:16:40;1006.20;;;24.65;50.51
48810;BME280;40070;47.322;18.784;2023-05-25T08:18:41;1006.17;;;24.34;51.66
48810;BME280;40070;47.322;18.784;2023-05-25T08:20:41;1006.19;;;24.81;51.12
48810;BME280;40070;47.322;18.784;2023-05-25T08:22:42;1006.17;;;25.01;50.12
48810;BME280;40070;47.322;18.784;2023-05-25T08:24:43;1006.17;;;25.08;50.83
48810;BME280;40070;47.322;18.784;2023-05-25T08:26:46;1006.19;;;24.71;51.05
48810;BME280;40070;47.322;18.784;2023-05-25T08:28:52;1006.15;;;24.75;49.65
48810;BME280;40070;47.322;18.784;2023-05-25T08:30:58;1006.18;;;24.86;50.63
48810;BME280;40070;47.322;18.784;2023-05-25T08:33:05;1006.17;;;24.94;50.04
48810;BME280;40070;47.322;18.784;2023-05-25T08:37:24;1006.19;;;25.07;49.73
48810;BME280;40070;47.322;18.784;2023-05-25T08:39:24;1006.19;;;25.45;49.27
48810;BME280;40070;47.322;18.784;2023-05-25T08:41:30;1006.21;;;25.50;48.74
48810;BME280;40070;47.322;18.784;2023-05-25T08:43:35;1006.19;;;25.64;48.18
48810;BME280;40070;47.322;18.784;2023-05-25T08:45:36;1006.15;;;25.29;48.20
48810;BME280;40070;47.322;18.784;2023-05-25T08:47:41;1006.27;;;24.93;49.18
48810;BME280;40070;47.322;18.784;2023-05-25T08:49:43;1006.22;;;25.10;48.74
48810;BME280;40070;47.322;18.784;2023-05-25T08:51:45;1006.19;;;25.48;47.57
48810;BME280;40070;47.322;18.784;2023-05-25T08:56:40;1006.21;;;25.97;47.52
48810;BME280;40070;47.322;18.784;2023-05-25T08:59:13;1006.21;;;25.56;48.88
48810;BME280;40070;47.322;18.784;2023-05-25T09:06:05;1006.25;;;25.09;48.35
48810;BME280;40070;47.322;18.784;2023-05-25T09:08:12;1006.18;;;25.40;48.28
48810;BME280;40070;47.322;18.784;2023-05-25T09:12:39;1006.12;;;25.88;47.24
48810;BME280;40070;47.322;18.784;2023-05-25T09:19:51;1006.14;;;25.88;46.71
48810;BME280;40070;47.322;18.784;2023-05-25T09:21:59;1006.13;;;25.93;46.56
48810;BME280;40070;47.322;18.784;2023-05-25T09:24:04;1006.15;;;25.90;46.64
48810;BME280;40070;47.322;18.784;2023-05-25T09:26:10;1006.21;;;26.18;46.06
48810;BME280;40070;47.322;18.784;2023-05-25T09:39:50;1006.22;;;26.95;45.50
48810;BME280;40070;47.322;18.784;2023-05-25T09:41:55;1006.20;;;26.75;44.58
48810;BME280;40070;47.322;18.784;2023-05-25T09:44:00;1006.17;;;27.12;43.59
48810;BME280;40070;47.322;18.784;2023-05-25T09:51:22;1006.21;;;27.19;43.56
48810;BME280;40070;47.322;18.784;2023-05-25T09:53:28;1006.24;;;26.87;44.62
48810;BME280;40070;47.322;18.784;2023-05-25T09:55:34;1006.27;;;26.60;44.44
48810;BME280;40070;47.322;18.784;2023-05-25T09:57:46;1006.25;;;27.15;43.39
48810;BME280;40070;47.322;18.784;2023-05-25T09:59:52;1006.27;;;27.28;43.64
48810;BME280;40070;47.322;18.784;2023-05-25T10:01:53;1006.31;;;26.98;45.17
48810;BME280;40070;47.322;18.784;2023-05-25T10:03:59;1006.28;;;27.27;44.17
48810;BME280;40070;47.322;18.784;2023-05-25T10:06:00;1006.22;;;27.71;43.01
48810;BME280;40070;47.322;18.784;2023-05-25T10:08:16;1006.24;;;27.17;44.26
48810;BME280;40070;47.322;18.784;2023-05-25T10:10:21;1006.25;;;26.68;44.66
48810;BME280;40070;47.322;18.784;2023-05-25T10:12:28;1006.20;;;26.77;44.76
48810;BME280;40070;47.322;18.784;2023-05-25T10:14:35;1006.17;;;27.25;44.53
48810;BME280;40070;47.322;18.784;2023-05-25T10:16:41;1006.07;;;27.41;43.37
48810;BME280;40070;47.322;18.784;2023-05-25T10:33:18;1006.00;;;27.40;42.53
48810;BME280;40070;47.322;18.784;2023-05-25T10:37:57;1006.09;;;26.87;44.68
48810;BME280;40070;47.322;18.784;2023-05-25T10:40:05;1006.08;;;26.11;45.36
48810;BME280;40070;47.322;18.784;2023-05-25T10:42:09;1006.02;;;25.78;46.36
48810;BME280;40070;47.322;18.784;2023-05-25T10:44:22;1006.02;;;26.32;46.05
48810;BME280;40070;47.322;18.784;2023-05-25T10:46:23;1006.00;;;26.51;45.86
48810;BME280;40070;47.322;18.784;2023-05-25T10:49:07;1006.02;;;26.31;45.85
48810;BME280;40070;47.322;18.784;2023-05-25T10:50:40;1005.97;;;26.62;45.82
48810;BME280;40070;47.322;18.784;2023-05-25T10:52:41;1005.96;;;26.72;45.34
48810;BME280;40070;47.322;18.784;2023-05-25T10:54:47;1005.94;;;26.34;46.35
48810;BME280;40070;47.322;18.784;2023-05-25T11:04:17;1005.91;;;27.04;45.12
48810;BME280;40070;47.322;18.784;2023-05-25T11:17:57;1005.69;;;26.93;44.48
48810;BME280;40070;47.322;18.784;2023-05-25T11:19:59;1005.67;;;27.08;43.95
48810;BME280;40070;47.322;18.784;2023-05-25T11:22:20;1005.70;;;27.11;43.27
48810;BME280;40070;47.322;18.784;2023-05-25T11:24:18;1005.66;;;27.11;42.95
48810;BME280;40070;47.322;18.784;2023-05-25T11:26:20;1005.58;;;27.15;42.42
48810;BME280;40070;47.322;18.784;2023-05-25T11:28:26;1005.63;;;27.02;43.45
48810;BME280;40070;47.322;18.784;2023-05-25T11:30:31;1005.61;;;26.96;43.74
48810;BME280;40070;47.322;18.784;2023-05-25T11:32:50;1005.64;;;26.71;43.16
48810;BME280;40070;47.322;18.784;2023-05-25T11:34:51;1005.58;;;26.92;43.32
48810;BME280;40070;47.322;18.784;2023-05-25T11:36:53;1005.52;;;27.34;43.40
48810;BME280;40070;47.322;18.784;2023-05-25T11:38:54;1005.52;;;27.32;43.71
48810;BME280;40070;47.322;18.784;2023-05-25T11:43:21;1005.48;;;27.24;42.44
48810;BME280;40070;47.322;18.784;2023-05-25T11:45:23;1005.42;;;27.94;41.75
48810;BME280;40070;47.322;18.784;2023-05-25T11:47:24;1005.37;;;28.26;40.99
48810;BME280;40070;47.322;18.784;2023-05-25T11:49:25;1005.37;;;28.10;41.62
48810;BME280;40070;47.322;18.784;2023-05-25T11:51:50;1005.36;;;27.84;42.41
48810;BME280;40070;47.322;18.784;2023-05-25T11:53:53;1005.38;;;27.22;43.51
48810;BME280;40070;47.322;18.784;2023-05-25T11:55:59;1005.37;;;27.16;43.79
48810;BME280;40070;47.322;18.784;2023-05-25T11:58:05;1005.36;;;27.09;43.68
48810;BME280;40070;47.322;18.784;2023-05-25T12:00:06;1005.36;;;27.27;42.32
48810;BME280;40070;47.322;18.784;2023-05-25T12:02:20;1005.26;;;27.65;43.20
48810;BME280;40070;47.322;18.784;2023-05-25T12:04:21;1005.30;;;28.43;40.95
48810;BME280;40070;47.322;18.784;2023-05-25T12:06:36;1005.26;;;27.90;41.16
48810;BME280;40070;47.322;18.784;2023-05-25T12:08:57;1005.20;;;28.60;39.25
48810;BME280;40070;47.322;18.784;2023-05-25T12:11:02;1005.13;;;28.96;39.31
48810;BME280;40070;47.322;18.784;2023-05-25T12:13:16;1005.12;;;28.84;40.96
48810;BME280;40070;47.322;18.784;2023-05-25T12:15:23;1005.25;;;28.39;42.16
48810;BME280;40070;47.322;18.784;2023-05-25T12:24:50;1005.17;;;27.45;42.63
48810;BME280;40070;47.322;18.784;2023-05-25T12:26:56;1005.22;;;26.86;45.09
48810;BME280;40070;47.322;18.784;2023-05-25T12:29:09;1005.26;;;26.31;47.04
48810;BME280;40070;47.322;18.784;2023-05-25T12:52:30;1005.10;;;28.01;43.36
48810;BME280;40070;47.322;18.784;2023-05-25T13:05:48;1004.93;;;27.94;42.91
48810;BME280;40070;47.322;18.784;2023-05-25T13:07:55;1004.88;;;27.56;42.22
48810;BME280;40070;47.322;18.784;2023-05-25T13:10:01;1004.84;;;27.64;42.57
48810;BME280;40070;47.322;18.784;2023-05-25T13:25:57;1004.74;;;27.85;41.89
48810;BME280;40070;47.322;18.784;2023-05-25T13:35:14;1004.64;;;27.31;41.04
48810;BME280;40070;47.322;18.784;2023-05-25T13:37:19;1004.59;;;27.38;42.11
48810;BME280;40070;47.322;18.784;2023-05-25T13:39:25;1004.56;;;27.57;43.32
48810;BME280;40070;47.322;18.784;2023-05-25T13:41:31;1004.50;;;27.69;39.90
48810;BME280;40070;47.322;18.784;2023-05-25T13:43:37;1004.47;;;27.58;39.52
48810;BME280;40070;47.322;18.784;2023-05-25T13:45:56;1004.45;;;27.30;40.56
48810;BME280;40070;47.322;18.784;2023-05-25T13:48:02;1004.38;;;27.09;42.38
48810;BME280;40070;47.322;18.784;2023-05-25T13:50:07;1004.36;;;27.09;42.59
48810;BME280;40070;47.322;18.784;2023-05-25T13:52:13;1004.33;;;27.20;42.29
48810;BME280;40070;47.322;18.784;2023-05-25T13:54:19;1004.26;;;26.94;41.48
48810;BME280;40070;47.322;18.784;2023-05-25T13:56:28;1004.31;;;26.87;42.27
48810;BME280;40070;47.322;18.784;2023-05-25T13:58:34;1004.22;;;27.02;41.52
48810;BME280;40070;47.322;18.784;2023-05-25T14:00:47;1004.23;;;27.25;42.11
48810;BME280;40070;47.322;18.784;2023-05-25T14:03:03;1004.19;;;27.29;42.02
48810;BME280;40070;47.322;18.784;2023-05-25T14:05:16;1004.16;;;27.29;42.18
48810;BME280;40070;47.322;18.784;2023-05-25T14:07:26;1004.19;;;27.36;42.79
48810;BME280;40070;47.322;18.784;2023-05-25T14:09:31;1004.17;;;27.23;42.01
48810;BME280;40070;47.322;18.784;2023-05-25T14:11:48;1004.18;;;27.37;42.26
48810;BME280;40070;47.322;18.784;2023-05-25T14:13:49;1004.13;;;27.19;42.29
48810;BME280;40070;47.322;18.784;2023-05-25T14:18:15;1004.11;;;26.95;42.28
48810;BME280;40070;47.322;18.784;2023-05-25T14:20:16;1004.09;;;26.73;42.09
48810;BME280;40070;47.322;18.784;2023-05-25T14:22:17;1004.08;;;26.85;42.06
48810;BME280;40070;47.322;18.784;2023-05-25T14:24:18;1004.08;;;26.86;44.34
48810;BME280;40070;47.322;18.784;2023-05-25T14:26:19;1004.06;;;26.64;42.94
48810;BME280;40070;47.322;18.784;2023-05-25T14:28:20;1004.08;;;26.60;43.47
48810;BME280;40070;47.322;18.784;2023-05-25T14:30:21;1004.06;;;26.62;44.49
48810;BME280;40070;47.322;18.784;2023-05-25T14:32:22;1004.09;;;26.87;44.22
48810;BME280;40070;47.322;18.784;2023-05-25T14:34:23;1004.07;;;26.63;43.87